createdAt,value
2023-05-09T00:02:02.265Z,81.53
2023-05-09T00:04:29.232Z,79.88
2023-05-09T00:06:55.884Z,79.90
2023-05-09T00:09:22.235Z,80.69
2023-05-09T00:11:48.710Z,80.84
2023-05-09T00:14:18.357Z,81.72
2023-05-09T00:16:45.501Z,82.47
2023-05-09T00:19:13.120Z,80.37
2023-05-09T00:21:39.830Z,80.82
2023-05-09T00:24:06.541Z,82.21
2023-05-09T00:26:33.725Z,81.44
2023-05-09T00:29:00.309Z,82.68
2023-05-09T00:31:26.730Z,81.44
2023-05-09T00:33:54.181Z,81.83
2023-05-09T00:36:21.338Z,81.47
2023-05-09T00:38:47.744Z,79.96
2023-05-09T00:41:14.140Z,80.21
2023-05-09T00:43:40.554Z,81.14
2023-05-09T00:46:07.204Z,81.94
2023-05-09T00:48:33.683Z,82.28
2023-05-09T00:51:00.062Z,81.91
2023-05-09T00:53:26.690Z,82.70
2023-05-09T00:55:55.815Z,81.57
2023-05-09T00:58:22.253Z,82.83
2023-05-09T01:00:48.675Z,81.81
2023-05-09T01:03:15.735Z,80.82
2023-05-09T01:06:10.101Z,82.16
2023-05-09T01:08:47.323Z,82.43
2023-05-09T01:11:25.641Z,82.64
2023-05-09T01:14:11.436Z,82.40
2023-05-09T01:16:43.129Z,81.66
2023-05-09T01:19:09.519Z,82.48
2023-05-09T01:21:40.251Z,83.04
2023-05-09T01:24:21.814Z,81.97
2023-05-09T01:27:28.948Z,83.09
2023-05-09T01:29:57.947Z,82.55
2023-05-09T01:32:27.929Z,80.93
2023-05-09T01:35:01.409Z,81.64
2023-05-09T01:37:33.721Z,80.51
2023-05-09T01:40:08.458Z,82.27
2023-05-09T01:42:45.477Z,81.71
2023-05-09T01:45:15.669Z,83.53
2023-05-09T01:47:43.978Z,81.61
2023-05-09T01:50:12.657Z,81.40
2023-05-09T01:52:42.472Z,81.32
2023-05-09T01:55:10.747Z,81.47
2023-05-09T01:57:38.982Z,80.72
2023-05-09T02:00:08.053Z,82.88
2023-05-09T02:02:35.798Z,81.54
2023-05-09T02:05:02.568Z,80.84
2023-05-09T02:07:29.875Z,81.73
2023-05-09T02:09:58.405Z,81.52
2023-05-09T02:12:25.085Z,81.46
2023-05-09T02:14:51.626Z,83.00
2023-05-09T02:17:19.243Z,81.96
2023-05-09T02:19:45.919Z,80.63
2023-05-09T02:22:13.273Z,82.82
2023-05-09T02:24:40.684Z,81.44
2023-05-09T02:27:07.785Z,82.97
2023-05-09T02:29:40.370Z,83.96
2023-05-09T02:32:16.370Z,82.58
2023-05-09T02:34:43.778Z,81.11
2023-05-09T02:37:10.846Z,81.86
2023-05-09T02:39:37.339Z,81.58
2023-05-09T02:42:12.094Z,82.91
2023-05-09T02:44:41.530Z,82.13
2023-05-09T02:47:08.024Z,82.86
2023-05-09T02:49:34.601Z,82.23
2023-05-09T02:52:01.454Z,79.99
2023-05-09T02:54:27.985Z,82.83
2023-05-09T02:56:54.430Z,81.03
2023-05-09T02:59:21.132Z,83.24
2023-05-09T03:01:47.557Z,81.85
2023-05-09T03:04:14.000Z,80.93
2023-05-09T03:06:40.515Z,80.96
2023-05-09T03:09:07.105Z,82.29
2023-05-09T03:11:33.769Z,80.91
2023-05-09T03:14:00.229Z,82.85
2023-05-09T03:16:26.764Z,83.63
2023-05-09T03:18:53.289Z,82.09
2023-05-09T03:21:19.703Z,82.10
2023-05-09T03:23:46.290Z,82.72
2023-05-09T03:26:13.159Z,82.94
2023-05-09T03:28:40.888Z,82.16
2023-05-09T03:31:07.434Z,83.59
2023-05-09T03:33:33.823Z,83.68
2023-05-09T03:36:00.389Z,84.57
2023-05-09T03:38:26.816Z,85.14
2023-05-09T03:40:53.991Z,84.70
2023-05-09T03:43:20.420Z,83.72
2023-05-09T03:45:46.842Z,82.21
2023-05-09T03:48:13.486Z,84.12
2023-05-09T03:50:39.944Z,84.47
2023-05-09T03:53:06.470Z,84.90
2023-05-09T03:55:32.876Z,85.22
2023-05-09T03:57:59.325Z,85.00
2023-05-09T04:00:28.880Z,84.70
2023-05-09T04:02:55.652Z,84.68
2023-05-09T04:05:22.049Z,85.01
2023-05-09T04:07:48.492Z,84.90
2023-05-09T04:10:15.405Z,85.27
2023-05-09T04:12:41.851Z,85.89
2023-05-09T04:15:09.017Z,85.40
2023-05-09T04:17:35.517Z,85.46
2023-05-09T04:20:03.311Z,85.16
2023-05-09T04:22:30.079Z,85.37
2023-05-09T04:24:57.195Z,85.52
2023-05-09T04:27:23.773Z,85.80
2023-05-09T04:29:50.264Z,85.20
2023-05-09T04:32:16.669Z,84.47
2023-05-09T04:34:43.293Z,84.97
2023-05-09T04:37:09.676Z,85.82
2023-05-09T04:39:36.097Z,85.35
2023-05-09T04:42:02.635Z,85.80
2023-05-09T04:44:29.156Z,85.36
2023-05-09T04:46:55.656Z,84.23
2023-05-09T04:49:22.130Z,85.27
2023-05-09T04:51:48.502Z,85.43
2023-05-09T04:54:15.119Z,85.88
2023-05-09T04:56:41.577Z,85.10
2023-05-09T04:59:08.023Z,85.06
2023-05-09T05:01:34.573Z,85.48
2023-05-09T05:04:01.002Z,85.60
2023-05-09T05:06:27.670Z,84.67
2023-05-09T05:08:54.032Z,85.08
2023-05-09T05:11:21.498Z,85.55
2023-05-09T05:13:47.942Z,85.32
2023-05-09T05:16:14.393Z,85.66
2023-05-09T05:18:40.931Z,84.28
2023-05-09T05:21:07.324Z,83.82
2023-05-09T05:23:33.699Z,84.89
2023-05-09T05:26:00.209Z,84.69
2023-05-09T05:28:26.650Z,85.02
2023-05-09T05:30:53.069Z,83.74
2023-05-09T05:33:19.429Z,82.55
2023-05-09T05:35:45.974Z,83.54
2023-05-09T05:38:12.404Z,83.44
2023-05-09T05:40:38.807Z,83.69
2023-05-09T05:43:05.316Z,82.73
2023-05-09T05:45:31.931Z,83.37
2023-05-09T05:47:58.658Z,82.74
2023-05-09T05:50:25.060Z,83.21
2023-05-09T05:52:51.519Z,82.63
2023-05-09T05:55:18.106Z,82.13
2023-05-09T05:57:44.597Z,82.01
2023-05-09T06:00:11.847Z,81.54
2023-05-09T06:02:40.837Z,81.23
2023-05-09T06:05:08.455Z,81.99
2023-05-09T06:07:34.941Z,81.54
2023-05-09T06:10:01.342Z,80.29
2023-05-09T06:12:28.131Z,80.55
2023-05-09T06:14:54.663Z,79.62
2023-05-09T06:17:21.253Z,80.43
2023-05-09T06:19:47.678Z,81.13
2023-05-09T06:22:14.041Z,80.67
2023-05-09T06:24:40.592Z,80.70
2023-05-09T06:27:07.045Z,80.78
2023-05-09T06:29:33.518Z,80.04
2023-05-09T06:32:00.331Z,80.18
2023-05-09T06:34:26.717Z,79.51
2023-05-09T06:36:53.212Z,80.22
2023-05-09T06:39:19.964Z,80.09
2023-05-09T06:41:46.734Z,79.99
2023-05-09T06:44:13.671Z,79.29
2023-05-09T06:46:40.314Z,79.88
2023-05-09T06:49:07.230Z,79.74
2023-05-09T06:51:33.700Z,80.18
2023-05-09T06:54:00.218Z,80.71
2023-05-09T06:56:26.961Z,79.71
2023-05-09T06:58:53.615Z,79.62
2023-05-09T07:01:20.092Z,80.08
2023-05-09T07:03:47.574Z,80.01
2023-05-09T07:06:14.298Z,79.22
2023-05-09T07:08:40.747Z,79.17
2023-05-09T07:11:07.254Z,80.16
2023-05-09T07:13:33.627Z,80.26
2023-05-09T07:16:00.052Z,79.87
2023-05-09T07:18:26.479Z,79.84
2023-05-09T07:20:52.933Z,80.84
2023-05-09T07:23:19.380Z,80.85
2023-05-09T07:25:45.791Z,80.33
2023-05-09T07:28:12.756Z,80.78
2023-05-09T07:30:39.294Z,80.42
2023-05-09T07:33:06.725Z,80.65
2023-05-09T07:35:33.365Z,80.77
2023-05-09T07:37:59.797Z,80.91
2023-05-09T07:40:26.439Z,80.45
2023-05-09T07:42:55.016Z,81.25
2023-05-09T07:45:23.722Z,81.12
2023-05-09T07:47:50.615Z,81.12
2023-05-09T07:50:17.451Z,80.87
2023-05-09T07:52:44.431Z,81.56
2023-05-09T07:55:12.384Z,81.30
2023-05-09T07:57:40.016Z,81.03
2023-05-09T08:00:08.836Z,81.94
2023-05-09T08:02:35.571Z,82.31
2023-05-09T08:05:02.072Z,82.00
2023-05-09T08:07:28.521Z,82.31
2023-05-09T08:09:56.014Z,82.09
2023-05-09T08:12:22.456Z,82.65
2023-05-09T08:14:49.075Z,82.71
2023-05-09T08:17:16.234Z,82.38
2023-05-09T08:19:42.849Z,81.82
2023-05-09T08:22:09.306Z,81.61
2023-05-09T08:24:35.697Z,82.46
2023-05-09T08:27:02.715Z,82.70
2023-05-09T08:29:29.851Z,82.13
2023-05-09T08:31:56.372Z,82.92
2023-05-09T08:34:22.881Z,83.14
2023-05-09T08:36:49.400Z,82.17
2023-05-09T08:39:15.850Z,82.78
2023-05-09T08:41:42.995Z,82.76
2023-05-09T08:44:10.242Z,82.44
2023-05-09T08:46:39.699Z,82.63
2023-05-09T08:49:09.438Z,82.01
2023-05-09T08:51:36.533Z,82.81
2023-05-09T08:54:03.480Z,82.96
2023-05-09T08:56:31.396Z,83.14
2023-05-09T08:58:58.928Z,82.61
2023-05-09T09:01:26.865Z,82.66
2023-05-09T09:03:53.838Z,83.09
2023-05-09T09:06:22.449Z,82.37
2023-05-09T09:08:49.940Z,83.28
2023-05-09T09:11:17.611Z,82.68
2023-05-09T09:13:45.950Z,82.00
2023-05-09T09:16:20.313Z,82.79
2023-05-09T09:18:47.528Z,82.05
2023-05-09T09:21:17.117Z,82.03
2023-05-09T09:23:47.372Z,81.89
2023-05-09T09:26:14.697Z,82.11
2023-05-09T09:28:42.089Z,82.07
2023-05-09T09:31:30.937Z,82.33
2023-05-09T09:34:01.958Z,82.20
2023-05-09T09:36:29.790Z,82.72
2023-05-09T09:39:00.719Z,82.92
2023-05-09T09:41:35.474Z,82.56
2023-05-09T09:44:11.786Z,82.64
2023-05-09T09:46:52.479Z,82.74
2023-05-09T09:49:23.893Z,82.18
2023-05-09T09:51:52.182Z,81.82
2023-05-09T09:54:22.545Z,82.32
2023-05-09T09:56:54.840Z,82.32
2023-05-09T09:59:24.850Z,81.54
2023-05-09T10:02:07.135Z,83.32
2023-05-09T10:04:37.528Z,82.88
2023-05-09T10:07:06.250Z,82.84
2023-05-09T10:09:34.763Z,83.08
2023-05-09T10:12:06.371Z,82.62
2023-05-09T10:14:35.689Z,83.00
2023-05-09T10:17:04.949Z,82.78
2023-05-09T10:19:32.588Z,83.03
2023-05-09T10:22:04.308Z,82.64
2023-05-09T10:24:33.945Z,83.27
2023-05-09T10:27:06.873Z,82.08
2023-05-09T10:29:40.424Z,82.72
2023-05-09T10:32:32.782Z,83.26
2023-05-09T10:35:04.907Z,82.14
2023-05-09T10:37:32.854Z,83.82
2023-05-09T10:40:02.800Z,83.19
2023-05-09T10:42:30.124Z,82.46
2023-05-09T10:44:58.048Z,81.93
2023-05-09T10:47:32.043Z,83.20
2023-05-09T10:49:58.789Z,83.10
2023-05-09T10:52:25.435Z,82.93
2023-05-09T10:55:01.040Z,82.51
2023-05-09T10:57:31.982Z,83.52
2023-05-09T11:00:00.263Z,82.70
2023-05-09T11:02:30.883Z,82.54
2023-05-09T11:05:14.572Z,82.36
2023-05-09T11:07:41.274Z,82.38
2023-05-09T11:10:25.871Z,82.56
2023-05-09T11:13:00.042Z,83.38
2023-05-09T11:15:29.792Z,83.24
2023-05-09T11:18:07.566Z,84.09
2023-05-09T11:20:38.589Z,83.53
2023-05-09T11:23:06.075Z,83.32
2023-05-09T11:25:32.979Z,82.86
2023-05-09T11:28:02.018Z,83.01
2023-05-09T11:30:49.257Z,82.37
2023-05-09T11:33:28.463Z,82.76
2023-05-09T11:36:19.429Z,83.14
2023-05-09T11:38:47.410Z,83.29
2023-05-09T11:41:13.858Z,83.72
2023-05-09T11:43:42.651Z,83.17
2023-05-09T11:46:09.035Z,82.96
2023-05-09T11:48:40.092Z,83.79
2023-05-09T11:51:07.428Z,83.70
2023-05-09T11:53:34.000Z,83.86
2023-05-09T11:56:04.699Z,84.10
2023-05-09T11:58:31.316Z,84.09
2023-05-09T12:00:58.601Z,83.98
2023-05-09T12:03:25.626Z,83.60
2023-05-09T12:05:54.352Z,84.12
2023-05-09T12:08:22.666Z,84.83
2023-05-09T12:10:49.049Z,84.63
2023-05-09T12:13:15.654Z,84.17
2023-05-09T12:15:45.034Z,84.31
2023-05-09T12:18:11.606Z,84.50
2023-05-09T12:20:47.446Z,84.47
2023-05-09T12:23:15.029Z,84.56
2023-05-09T12:25:55.193Z,84.49
2023-05-09T12:28:25.773Z,85.27
2023-05-09T12:30:52.991Z,84.46
2023-05-09T12:33:20.239Z,84.74
2023-05-09T12:35:48.302Z,84.66
2023-05-09T12:38:24.550Z,84.78
2023-05-09T12:41:04.329Z,84.51
2023-05-09T12:43:35.726Z,85.36
2023-05-09T12:46:03.231Z,85.63
2023-05-09T12:48:34.243Z,84.83
2023-05-09T12:51:07.473Z,85.47
2023-05-09T12:53:38.662Z,85.27
2023-05-09T12:56:12.577Z,84.81
2023-05-09T12:58:39.476Z,84.65
2023-05-09T13:01:06.693Z,84.73
2023-05-09T13:03:37.990Z,84.69
2023-05-09T13:06:06.546Z,84.55
2023-05-09T13:08:33.153Z,84.25
2023-05-09T13:11:11.951Z,84.84
2023-05-09T13:13:42.548Z,84.78
2023-05-09T13:16:10.737Z,84.92
2023-05-09T13:18:37.963Z,84.47
2023-05-09T13:21:04.357Z,84.72
2023-05-09T13:23:30.855Z,84.28
2023-05-09T13:25:57.252Z,84.76
2023-05-09T13:28:23.692Z,85.54
2023-05-09T13:30:50.136Z,84.88
2023-05-09T13:33:25.374Z,85.46
2023-05-09T13:35:53.130Z,84.45
2023-05-09T13:38:19.610Z,85.34
2023-05-09T13:40:46.347Z,84.45
2023-05-09T13:43:12.795Z,84.58
2023-05-09T13:45:41.965Z,84.41
2023-05-09T13:48:08.453Z,83.82
2023-05-09T13:50:34.866Z,84.17
2023-05-09T13:53:01.335Z,84.48
2023-05-09T13:55:27.868Z,83.60
2023-05-09T13:57:54.837Z,82.67
2023-05-09T14:00:22.088Z,83.74
2023-05-09T14:02:48.630Z,83.77
2023-05-09T14:05:15.218Z,84.35
2023-05-09T14:07:42.764Z,84.21
2023-05-09T14:10:11.974Z,84.40
2023-05-09T14:12:40.291Z,84.97
2023-05-09T14:15:07.801Z,84.60
2023-05-09T14:17:34.336Z,84.45
2023-05-09T14:20:00.897Z,84.73
2023-05-09T14:22:28.141Z,85.28
2023-05-09T14:24:56.422Z,85.56
2023-05-09T14:27:23.121Z,84.75
2023-05-09T14:29:49.505Z,85.67
2023-05-09T14:32:16.140Z,84.95
2023-05-09T14:34:42.520Z,84.15
2023-05-09T14:37:13.642Z,84.22
2023-05-09T14:39:45.163Z,84.84
2023-05-09T14:42:14.059Z,84.92
2023-05-09T14:44:40.863Z,84.46
2023-05-09T14:47:09.008Z,84.18
2023-05-09T14:49:36.882Z,83.62
2023-05-09T14:52:03.509Z,83.74
2023-05-09T14:54:30.011Z,83.79
2023-05-09T14:56:57.172Z,84.60
2023-05-09T14:59:23.569Z,83.96
2023-05-09T15:01:51.720Z,84.83
2023-05-09T15:04:18.255Z,83.64
2023-05-09T15:06:45.372Z,83.99
2023-05-09T15:09:12.828Z,83.41
2023-05-09T15:11:47.806Z,84.49
2023-05-09T15:14:16.380Z,84.37
2023-05-09T15:16:43.007Z,84.98
2023-05-09T15:19:09.886Z,84.81
2023-05-09T15:21:36.453Z,84.13
2023-05-09T15:24:03.474Z,84.46
2023-05-09T15:26:30.173Z,84.42
2023-05-09T15:28:56.570Z,85.24
2023-05-09T15:31:24.082Z,83.95
2023-05-09T15:33:50.864Z,84.10
2023-05-09T15:36:17.388Z,84.64
2023-05-09T15:38:46.194Z,84.28
2023-05-09T15:41:12.567Z,84.18
2023-05-09T15:43:39.369Z,83.75
2023-05-09T15:46:05.916Z,83.63
2023-05-09T15:48:32.393Z,84.55
2023-05-09T15:50:58.979Z,84.75
2023-05-09T15:53:27.537Z,84.98
2023-05-09T15:55:53.970Z,84.13
2023-05-09T15:58:20.435Z,83.79
2023-05-09T16:00:46.869Z,84.68
2023-05-09T16:03:13.677Z,84.06
2023-05-09T16:05:41.060Z,84.38
2023-05-09T16:08:07.679Z,84.77
2023-05-09T16:10:34.167Z,84.51
2023-05-09T16:13:00.661Z,84.52
2023-05-09T16:15:27.523Z,84.33
2023-05-09T16:18:01.068Z,83.40
2023-05-09T16:20:34.234Z,82.93
2023-05-09T16:23:00.638Z,84.34
2023-05-09T16:25:27.313Z,83.67
2023-05-09T16:27:53.803Z,83.94
2023-05-09T16:30:20.298Z,83.86
2023-05-09T16:32:46.851Z,84.15
2023-05-09T16:35:13.355Z,83.91
2023-05-09T16:37:39.884Z,82.96
2023-05-09T16:40:06.790Z,83.52
2023-05-09T16:42:33.493Z,84.27
2023-05-09T16:45:00.023Z,84.23
2023-05-09T16:47:26.524Z,83.55
2023-05-09T16:49:52.932Z,83.81
2023-05-09T16:52:19.307Z,84.70
2023-05-09T16:54:45.801Z,84.43
2023-05-09T16:57:13.162Z,84.43
2023-05-09T16:59:39.712Z,84.87
2023-05-09T17:02:07.175Z,84.83
2023-05-09T17:04:35.900Z,84.24
2023-05-09T17:07:04.016Z,84.50
2023-05-09T17:09:31.821Z,84.78
2023-05-09T17:11:59.000Z,83.31
2023-05-09T17:14:32.751Z,85.30
2023-05-09T17:16:59.284Z,84.32
2023-05-09T17:19:26.197Z,84.13
2023-05-09T17:21:53.400Z,84.98
2023-05-09T17:24:19.783Z,84.35
2023-05-09T17:26:46.772Z,84.77
2023-05-09T17:29:13.350Z,84.93
2023-05-09T17:31:39.740Z,85.33
2023-05-09T17:34:06.237Z,84.58
2023-05-09T17:36:33.634Z,85.32
2023-05-09T17:39:00.730Z,84.98
2023-05-09T17:41:27.219Z,84.38
2023-05-09T17:43:56.385Z,85.64
2023-05-09T17:46:23.622Z,85.10
2023-05-09T17:48:50.533Z,84.62
2023-05-09T17:51:17.485Z,84.61
2023-05-09T17:53:43.901Z,84.82
2023-05-09T17:56:10.411Z,85.38
2023-05-09T17:58:36.913Z,85.18
2023-05-09T18:01:03.496Z,85.80
2023-05-09T18:03:32.253Z,86.07
2023-05-09T18:06:00.238Z,85.98
2023-05-09T18:08:26.914Z,86.10
2023-05-09T18:10:56.209Z,85.38
2023-05-09T18:13:23.154Z,85.71
2023-05-09T18:15:49.814Z,85.02
2023-05-09T18:18:16.371Z,84.69
2023-05-09T18:20:43.082Z,85.90
2023-05-09T18:23:10.381Z,86.22
2023-05-09T18:25:38.538Z,85.06
2023-05-09T18:28:05.421Z,85.82
2023-05-09T18:30:32.018Z,85.18
2023-05-09T18:33:00.361Z,84.42
2023-05-09T18:35:27.011Z,84.75
2023-05-09T18:37:53.883Z,85.47
2023-05-09T18:40:20.321Z,83.96
2023-05-09T18:42:47.257Z,85.88
2023-05-09T18:45:13.940Z,84.23
2023-05-09T18:47:41.566Z,85.46
2023-05-09T18:50:08.449Z,84.60
2023-05-09T18:52:34.956Z,84.75
2023-05-09T18:55:01.448Z,85.25
2023-05-09T18:57:28.347Z,85.51
2023-05-09T18:59:55.035Z,85.54
2023-05-09T19:02:22.339Z,86.01
2023-05-09T19:04:50.410Z,85.75
2023-05-09T19:07:17.060Z,85.89
2023-05-09T19:09:43.687Z,86.14
2023-05-09T19:12:10.205Z,85.62
2023-05-09T19:14:37.899Z,85.70
2023-05-09T19:17:05.512Z,85.60
2023-05-09T19:19:32.335Z,84.74
2023-05-09T19:21:59.024Z,85.60
2023-05-09T19:24:25.520Z,85.55
2023-05-09T19:26:52.030Z,84.64
2023-05-09T19:29:18.515Z,86.17
2023-05-09T19:31:44.882Z,85.45
2023-05-09T19:34:11.305Z,86.28
2023-05-09T19:36:37.792Z,85.89
2023-05-09T19:39:05.558Z,85.41
2023-05-09T19:41:32.156Z,86.13
2023-05-09T19:43:59.356Z,85.23
2023-05-09T19:46:26.274Z,85.67
2023-05-09T19:48:52.842Z,84.85
2023-05-09T19:51:19.270Z,85.08
2023-05-09T19:53:46.870Z,85.14
2023-05-09T19:56:13.802Z,85.52
2023-05-09T19:58:40.347Z,84.81
2023-05-09T20:01:07.222Z,84.73
2023-05-09T20:03:36.748Z,85.64
2023-05-09T20:06:03.702Z,85.19
2023-05-09T20:08:31.128Z,85.78
2023-05-09T20:10:57.602Z,84.58
2023-05-09T20:13:24.402Z,85.58
2023-05-09T20:15:51.014Z,84.16
2023-05-09T20:18:17.609Z,84.72
2023-05-09T20:20:44.123Z,86.32
2023-05-09T20:23:10.725Z,85.77
2023-05-09T20:25:37.184Z,85.37
2023-05-09T20:28:03.810Z,85.01
2023-05-09T20:30:30.381Z,84.36
2023-05-09T20:32:58.529Z,85.81
2023-05-09T20:35:25.455Z,85.64
2023-05-09T20:37:52.159Z,85.84
2023-05-09T20:40:18.924Z,86.43
2023-05-09T20:42:45.424Z,86.09
2023-05-09T20:45:12.086Z,85.76
2023-05-09T20:47:39.783Z,85.84
2023-05-09T20:50:07.088Z,85.80
2023-05-09T20:52:33.562Z,85.73
2023-05-09T20:55:00.162Z,86.19
2023-05-09T20:57:26.693Z,85.80
2023-05-09T20:59:53.144Z,85.72
2023-05-09T21:02:19.749Z,86.04
2023-05-09T21:04:46.221Z,85.92
2023-05-09T21:07:12.683Z,86.11
2023-05-09T21:09:39.216Z,85.29
2023-05-09T21:12:05.953Z,85.79
2023-05-09T21:14:32.434Z,84.92
2023-05-09T21:16:59.065Z,85.81
2023-05-09T21:19:25.874Z,85.23
2023-05-09T21:21:52.307Z,85.10
2023-05-09T21:24:18.753Z,84.91
2023-05-09T21:26:45.227Z,84.95
2023-05-09T21:29:11.776Z,85.41
2023-05-09T21:31:40.474Z,84.95
2023-05-09T21:34:10.307Z,84.03
2023-05-09T21:36:40.527Z,84.71
2023-05-09T21:39:10.805Z,85.31
2023-05-09T21:41:38.793Z,85.88
2023-05-09T21:44:07.771Z,85.96
2023-05-09T21:46:35.219Z,85.22
2023-05-09T21:49:02.005Z,85.23
2023-05-09T21:51:29.282Z,86.56
2023-05-09T21:53:56.035Z,86.51
2023-05-09T21:56:23.126Z,86.43
2023-05-09T21:58:49.604Z,86.67
2023-05-09T22:01:17.085Z,85.21
2023-05-09T22:03:43.751Z,86.43
2023-05-09T22:06:11.502Z,85.29
2023-05-09T22:08:37.932Z,84.86
2023-05-09T22:11:04.654Z,85.84
2023-05-09T22:13:31.141Z,86.32
2023-05-09T22:15:57.614Z,86.09
2023-05-09T22:18:24.111Z,86.54
2023-05-09T22:20:50.594Z,85.91
2023-05-09T22:23:17.059Z,85.66
2023-05-09T22:25:43.669Z,85.05
2023-05-09T22:28:10.248Z,84.78
2023-05-09T22:30:37.292Z,86.29
2023-05-09T22:33:03.935Z,87.53
2023-05-09T22:35:30.404Z,86.20
2023-05-09T22:37:56.859Z,86.19
2023-05-09T22:40:23.312Z,85.86
2023-05-09T22:42:49.734Z,84.60
2023-05-09T22:45:16.202Z,85.95
2023-05-09T22:47:42.734Z,86.85
2023-05-09T22:50:10.164Z,86.13
2023-05-09T22:52:36.693Z,86.83
2023-05-09T22:55:03.523Z,87.25
2023-05-09T22:57:31.123Z,87.08
2023-05-09T22:59:57.562Z,86.55
2023-05-09T23:02:24.125Z,85.75
2023-05-09T23:04:50.813Z,85.18
2023-05-09T23:07:17.646Z,86.50
2023-05-09T23:09:44.218Z,85.57
2023-05-09T23:12:10.855Z,85.28
2023-05-09T23:14:37.366Z,85.01
2023-05-09T23:17:04.002Z,85.19
2023-05-09T23:19:30.477Z,85.07
2023-05-09T23:21:58.970Z,85.34
2023-05-09T23:24:25.626Z,84.51
2023-05-09T23:26:53.413Z,84.69
2023-05-09T23:29:20.085Z,85.84
2023-05-09T23:31:47.052Z,85.46
2023-05-09T23:34:13.676Z,84.73
2023-05-09T23:36:40.303Z,83.88
2023-05-09T23:39:06.830Z,85.08
2023-05-09T23:41:33.359Z,84.41
2023-05-09T23:43:59.792Z,84.36
2023-05-09T23:46:27.214Z,84.18
2023-05-09T23:48:53.654Z,85.04
2023-05-09T23:51:21.537Z,85.09
2023-05-09T23:53:48.837Z,84.28
2023-05-09T23:56:15.440Z,85.54
2023-05-09T23:59:42.631Z,85.40
